createdAt,value
2022-09-10T00:02:19.555Z,100230.10
2022-09-10T00:07:23.177Z,100236.20
2022-09-10T00:12:26.184Z,100236.69
2022-09-10T00:17:29.291Z,100233.71
2022-09-10T00:22:33.374Z,100225.83
2022-09-10T00:27:36.537Z,100223.08
2022-09-10T00:32:39.805Z,100224.01
2022-09-10T00:37:42.648Z,100225.08
2022-09-10T00:42:45.552Z,100229.33
2022-09-10T00:47:50.488Z,100231.53
2022-09-10T00:52:57.404Z,100231.61
2022-09-10T00:58:02.132Z,100222.29
2022-09-10T01:03:08.086Z,100232.67
2022-09-10T01:08:16.454Z,100228.53
2022-09-10T01:13:25.706Z,100224.56
2022-09-10T01:18:46.226Z,100211.15
2022-09-10T01:24:19.668Z,100211.00
2022-09-10T01:29:31.254Z,100208.77
2022-09-10T01:34:55.765Z,100197.38
2022-09-10T01:40:02.015Z,100181.42
2022-09-10T01:45:06.687Z,100176.73
2022-09-10T01:50:21.688Z,100173.61
2022-09-10T01:55:42.095Z,100169.77
2022-09-10T02:00:53.832Z,100169.91
2022-09-10T02:05:58.089Z,100173.59
2022-09-10T02:11:06.396Z,100175.14
2022-09-10T02:16:13.178Z,100177.56
2022-09-10T02:21:16.503Z,100176.48
2022-09-10T02:26:19.953Z,100173.71
2022-09-10T02:31:23.949Z,100173.35
2022-09-10T02:36:26.933Z,100167.70
2022-09-10T02:41:34.139Z,100166.83
2022-09-10T02:46:36.939Z,100163.48
2022-09-10T02:51:41.996Z,100158.05
2022-09-10T02:56:44.894Z,100151.77
2022-09-10T03:01:48.601Z,100150.30
2022-09-10T03:06:52.255Z,100145.71
2022-09-10T03:11:55.453Z,100145.60
2022-09-10T03:16:58.455Z,100153.89
2022-09-10T03:22:01.571Z,100147.30
2022-09-10T03:27:04.476Z,100140.82
2022-09-10T03:32:07.482Z,100136.46
2022-09-10T03:37:10.586Z,100133.34
2022-09-10T03:42:14.271Z,100130.71
2022-09-10T03:47:17.211Z,100132.87
2022-09-10T03:52:22.894Z,100131.67
2022-09-10T03:57:26.504Z,100121.13
2022-09-10T04:02:29.437Z,100116.39
2022-09-10T04:07:32.308Z,100113.64
2022-09-10T04:12:36.440Z,100114.73
2022-09-10T04:17:39.194Z,100108.80
2022-09-10T04:22:42.046Z,100106.00
2022-09-10T04:27:46.382Z,100107.39
2022-09-10T04:32:49.881Z,100103.50
2022-09-10T04:37:52.803Z,100102.96
2022-09-10T04:42:56.294Z,100105.70
2022-09-10T04:48:01.683Z,100102.43
2022-09-10T04:53:08.173Z,100105.98
2022-09-10T04:58:11.589Z,100098.60
2022-09-10T05:03:15.827Z,100102.02
2022-09-10T05:08:19.236Z,100099.86
2022-09-10T05:13:25.531Z,100099.16
2022-09-10T05:18:28.629Z,100097.02
2022-09-10T05:23:32.356Z,100095.08
2022-09-10T05:28:35.302Z,100093.90
2022-09-10T05:33:42.184Z,100092.17
2022-09-10T05:38:47.934Z,100088.11
2022-09-10T05:43:50.932Z,100083.33
2022-09-10T05:48:54.454Z,100078.52
2022-09-10T05:54:00.979Z,100078.39
2022-09-10T05:59:07.529Z,100081.40
2022-09-10T06:04:11.456Z,100082.66
2022-09-10T06:09:14.566Z,100086.05
2022-09-10T06:14:17.467Z,100086.86
2022-09-10T06:19:21.602Z,100087.66
2022-09-10T06:24:26.039Z,100087.80
2022-09-10T06:29:29.661Z,100087.65
2022-09-10T06:34:32.566Z,100089.78
2022-09-10T06:39:38.352Z,100097.05
2022-09-10T06:44:41.342Z,100094.39
2022-09-10T06:49:44.255Z,100096.23
2022-09-10T06:54:48.385Z,100096.80
2022-09-10T06:59:51.182Z,100100.73
2022-09-10T07:04:54.090Z,100103.23
2022-09-10T07:09:56.888Z,100114.80
2022-09-10T07:14:59.792Z,100113.44
2022-09-10T07:20:03.404Z,100114.38
2022-09-10T07:25:07.422Z,100112.91
2022-09-10T07:30:11.822Z,100103.89
2022-09-10T07:35:15.002Z,100099.52
2022-09-10T07:40:17.894Z,100093.14
2022-09-10T07:45:22.462Z,100089.39
2022-09-10T07:50:32.718Z,100082.02
2022-09-10T07:55:35.925Z,100083.27
2022-09-10T08:00:42.624Z,100091.23
2022-09-10T08:05:47.170Z,100093.99
2022-09-10T08:10:49.961Z,100092.63
2022-09-10T08:15:52.800Z,100089.70
2022-09-10T08:20:55.875Z,100089.42
2022-09-10T08:25:59.007Z,100084.17
2022-09-10T08:31:10.115Z,100087.98
2022-09-10T08:36:15.137Z,100086.40
2022-09-10T08:41:31.448Z,100077.83
2022-09-10T08:46:42.005Z,100068.65
2022-09-10T08:52:20.776Z,100064.86
2022-09-10T08:57:32.592Z,100067.14
2022-09-10T09:02:49.701Z,100066.35
2022-09-10T09:07:54.680Z,100070.02
2022-09-10T09:13:00.348Z,100074.45
2022-09-10T09:18:40.135Z,100074.18
2022-09-10T09:24:12.540Z,100071.20
2022-09-10T09:29:56.721Z,100068.54
2022-09-10T09:35:28.976Z,100064.58
2022-09-10T09:40:45.705Z,100069.21
2022-09-10T09:45:49.578Z,100060.89
2022-09-10T09:50:55.900Z,100061.54
2022-09-10T09:56:01.495Z,100056.36
2022-09-10T10:01:04.457Z,100052.68
2022-09-10T10:06:10.657Z,100049.10
2022-09-10T10:11:20.315Z,100052.02
2022-09-10T10:16:35.843Z,100057.37
2022-09-10T10:21:44.269Z,100059.23
2022-09-10T10:26:48.911Z,100058.64
2022-09-10T10:31:53.756Z,100050.15
2022-09-10T10:37:18.680Z,100049.16
2022-09-10T10:42:29.781Z,100056.40
2022-09-10T10:47:43.642Z,100052.41
2022-09-10T10:52:55.865Z,100050.55
2022-09-10T10:58:24.777Z,100046.48
2022-09-10T11:03:46.420Z,100047.87
2022-09-10T11:08:58.164Z,100044.67
2022-09-10T11:14:10.043Z,100046.73
2022-09-10T11:19:20.115Z,100046.30
2022-09-10T11:24:44.838Z,100044.77
2022-09-10T11:30:10.571Z,100043.38
2022-09-10T11:35:19.310Z,100046.24
2022-09-10T11:40:31.950Z,100038.89
2022-09-10T11:45:49.288Z,100030.60
2022-09-10T11:51:02.225Z,100027.54
2022-09-10T11:56:05.988Z,100027.50
2022-09-10T12:01:33.945Z,100025.96
2022-09-10T12:06:41.461Z,100027.27
2022-09-10T12:11:56.440Z,100026.46
2022-09-10T12:17:09.482Z,100019.08
2022-09-10T12:22:29.692Z,100010.03
2022-09-10T12:27:44.478Z,100008.60
2022-09-10T12:32:48.721Z,100005.00
2022-09-10T12:38:30.021Z,100005.99
2022-09-10T12:43:41.925Z,100002.24
2022-09-10T12:49:05.622Z,100000.19
2022-09-10T12:54:30.336Z,100003.40
2022-09-10T13:00:04.696Z,99998.84
2022-09-10T13:05:38.816Z,99993.20
2022-09-10T13:10:59.954Z,99984.46
2022-09-10T13:16:04.516Z,99980.50
2022-09-10T13:21:30.535Z,99979.64
2022-09-10T13:26:48.631Z,99986.52
2022-09-10T13:32:20.683Z,99989.02
2022-09-10T13:37:51.508Z,99984.80
2022-09-10T13:43:23.017Z,99968.60
2022-09-10T13:48:30.956Z,99961.23
2022-09-10T13:53:36.216Z,99964.27
2022-09-10T13:58:48.583Z,99961.30
2022-09-10T14:03:52.152Z,99967.75
2022-09-10T14:08:58.741Z,99965.98
2022-09-10T14:14:07.782Z,99967.42
2022-09-10T14:19:23.385Z,99959.00
2022-09-10T14:24:31.460Z,99958.33
2022-09-10T14:29:34.416Z,99944.17
2022-09-10T14:34:37.422Z,99946.26
2022-09-10T14:39:44.705Z,99941.17
2022-09-10T14:44:48.042Z,99944.73
2022-09-10T14:49:52.382Z,99942.23
2022-09-10T14:54:56.309Z,99937.90
2022-09-10T15:00:00.232Z,99933.23
2022-09-10T15:05:03.322Z,99941.15
2022-09-10T15:10:07.483Z,99935.89
2022-09-10T15:15:17.230Z,99938.70
2022-09-10T15:20:25.823Z,99945.73
2022-09-10T15:25:38.585Z,99944.27
2022-09-10T15:30:41.934Z,99943.19
2022-09-10T15:35:44.875Z,99942.73
2022-09-10T15:40:52.812Z,99945.40
2022-09-10T15:45:57.223Z,99942.30
2022-09-10T15:51:05.287Z,99939.64
2022-09-10T15:56:10.890Z,99939.53
2022-09-10T16:01:15.346Z,99942.59
2022-09-10T16:06:19.611Z,99946.73
2022-09-10T16:11:23.187Z,99939.34
2022-09-10T16:16:27.347Z,99933.01
2022-09-10T16:21:32.782Z,99938.16
2022-09-10T16:26:39.245Z,99935.69
2022-09-10T16:31:43.722Z,99933.72
2022-09-10T16:36:49.053Z,99930.49
2022-09-10T16:41:52.389Z,99927.98
2022-09-10T16:46:57.766Z,99921.03
2022-09-10T16:52:00.651Z,99923.93
2022-09-10T16:57:04.171Z,99921.35
2022-09-10T17:02:07.686Z,99917.05
2022-09-10T17:07:10.697Z,99918.65
2022-09-10T17:12:13.596Z,99914.60
2022-09-10T17:17:16.504Z,99912.73
2022-09-10T17:22:19.406Z,99914.36
2022-09-10T17:27:25.397Z,99917.17
2022-09-10T17:32:28.905Z,99916.23
2022-09-10T17:37:32.521Z,99919.95
2022-09-10T17:42:35.633Z,99915.75
2022-09-10T17:47:39.252Z,99911.22
2022-09-10T17:52:45.945Z,99907.61
2022-09-10T17:57:49.110Z,99902.73
2022-09-10T18:02:54.949Z,99897.66
2022-09-10T18:07:57.930Z,99895.68
2022-09-10T18:13:01.654Z,99905.23
2022-09-10T18:18:04.773Z,99904.52
2022-09-10T18:23:07.647Z,99909.02
2022-09-10T18:28:11.148Z,99909.69
2022-09-10T18:33:14.918Z,99905.82
2022-09-10T18:38:18.236Z,99905.98
2022-09-10T18:43:21.126Z,99907.36
2022-09-10T18:48:23.946Z,99905.64
2022-09-10T18:53:28.786Z,99906.39
2022-09-10T18:58:31.579Z,99905.86
2022-09-10T19:03:36.952Z,99903.04
2022-09-10T19:08:45.888Z,99906.02
2022-09-10T19:13:53.704Z,99909.30
2022-09-10T19:18:58.864Z,99907.55
2022-09-10T19:24:02.413Z,99904.92
2022-09-10T19:29:06.624Z,99906.83
2022-09-10T19:34:12.318Z,99908.85
2022-09-10T19:39:17.262Z,99903.73
2022-09-10T19:44:20.348Z,99906.35
2022-09-10T19:49:23.377Z,99901.09
2022-09-10T19:54:28.407Z,99901.73
2022-09-10T19:59:31.621Z,99904.58
2022-09-10T20:04:35.597Z,99897.73
2022-09-10T20:09:40.060Z,99895.20
2022-09-10T20:14:43.197Z,99895.46
2022-09-10T20:19:46.000Z,99892.31
2022-09-10T20:24:48.910Z,99882.35
2022-09-10T20:29:51.757Z,99877.48
2022-09-10T20:34:56.454Z,99876.75
2022-09-10T20:39:59.384Z,99875.55
2022-09-10T20:45:02.665Z,99870.62
2022-09-10T20:50:06.574Z,99866.91
2022-09-10T20:55:12.570Z,99861.95
2022-09-10T21:00:15.902Z,99864.25
2022-09-10T21:05:20.426Z,99863.54
2022-09-10T21:10:23.437Z,99863.84
2022-09-10T21:15:26.952Z,99861.29
2022-09-10T21:20:29.750Z,99855.74
2022-09-10T21:25:33.988Z,99853.69
2022-09-10T21:30:37.303Z,99850.83
2022-09-10T21:35:41.280Z,99851.17
2022-09-10T21:40:44.544Z,99853.51
2022-09-10T21:45:48.367Z,99850.00
2022-09-10T21:51:04.793Z,99850.98
2022-09-10T21:56:10.055Z,99850.60
2022-09-10T22:01:19.041Z,99850.32
2022-09-10T22:06:30.878Z,99848.33
2022-09-10T22:11:40.865Z,99844.89
2022-09-10T22:16:45.579Z,99849.03
2022-09-10T22:21:48.633Z,99840.69
2022-09-10T22:26:52.048Z,99842.44
2022-09-10T22:31:55.667Z,99836.52
2022-09-10T22:36:58.467Z,99833.09
2022-09-10T22:42:01.275Z,99829.41
2022-09-10T22:47:04.280Z,99832.13
2022-09-10T22:52:07.079Z,99829.11
2022-09-10T22:57:09.983Z,99820.63
2022-09-10T23:02:12.788Z,99817.62
2022-09-10T23:07:16.714Z,99814.54
2022-09-10T23:12:22.280Z,99804.98
2022-09-10T23:17:25.079Z,99801.52
2022-09-10T23:22:27.984Z,99796.96
2022-09-10T23:27:30.991Z,99789.17
2022-09-10T23:32:33.810Z,99781.21
2022-09-10T23:37:36.698Z,99776.43
2022-09-10T23:42:39.599Z,99770.75
2022-09-10T23:47:42.369Z,99772.73
2022-09-10T23:52:45.201Z,99770.81
2022-09-10T23:57:48.415Z,99777.16
